Time;durP1;ratioP1;P1;durP2;ratioP2;P2;SDS_P1;SDS_P2;PMS_P1;PMS_P2;Temp;Humidity;BMP_temperature;BMP_pressure;BME280_temperature;BME280_humidity;BME280_pressure;Samples;Min_cycle;Max_cycle;Signal;HPM_P1;HPM_P2
2022/09/30 00:01:06;;;;;;;4.80;4.40;;;;;;;;;;5163180;27;20209;-65
2022/09/30 00:03:35;;;;;;;4.22;3.88;;;;;;;;;;5161654;27;20243;-65
2022/09/30 00:06:04;;;;;;;4.18;3.78;;;;;;;;;;5162428;27;20650;-65
2022/09/30 00:08:32;;;;;;;5.22;4.72;;;;;;;;;;5162818;27;20282;-65
2022/09/30 00:11:02;;;;;;;4.35;3.95;;;;;;;;;;5162713;27;20233;-65
2022/09/30 00:13:31;;;;;;;4.60;4.20;;;;;;;;;;5147510;27;20198;-67
2022/09/30 00:15:58;;;;;;;4.35;3.97;;;;;;;;;;5141834;27;20267;-67
2022/09/30 00:18:28;;;;;;;4.30;4.00;;;;;;;;;;5141764;27;20263;-67
2022/09/30 00:20:56;;;;;;;3.92;3.63;;;;;;;;;;5141631;27;20198;-67
2022/09/30 00:23:24;;;;;;;4.22;3.83;;;;;;;;;;5141412;27;20315;-65
2022/09/30 00:25:52;;;;;;;3.80;3.50;;;;;;;;;;5142179;27;20206;-65
2022/09/30 00:28:20;;;;;;;4.25;3.95;;;;;;;;;;5141815;27;20653;-65
2022/09/30 00:30:48;;;;;;;4.40;4.00;;;;;;;;;;5141448;27;20233;-67
2022/09/30 00:33:16;;;;;;;4.15;3.85;;;;;;;;;;5153527;27;20198;-65
2022/09/30 00:35:45;;;;;;;3.78;3.38;;;;;;;;;;5162454;27;20311;-66
2022/09/30 00:38:13;;;;;;;4.25;3.85;;;;;;;;;;5162421;27;20201;-65
2022/09/30 00:40:41;;;;;;;3.95;3.65;;;;;;;;;;5162151;27;20275;-66
2022/09/30 00:43:14;;;;;;;3.67;3.38;;;;;;;;;;5161156;27;20198;-66
2022/09/30 00:45:47;;;;;;;3.83;3.53;;;;;;;;;;5162326;27;20206;-66
2022/09/30 00:48:18;;;;;;;3.85;3.55;;;;;;;;;;5162214;27;20520;-65
2022/09/30 00:50:48;;;;;;;3.65;3.35;;;;;;;;;;5162520;27;20614;-65
2022/09/30 00:53:19;;;;;;;3.40;3.10;;;;;;;;;;5149905;27;20388;-65
2022/09/30 00:55:53;;;;;;;3.50;3.20;;;;;;;;;;5141314;27;20338;-65
2022/09/30 00:58:24;;;;;;;3.80;3.50;;;;;;;;;;5141288;27;20202;-65
2022/09/30 01:00:52;;;;;;;3.60;3.30;;;;;;;;;;5140578;27;20199;-65
2022/09/30 01:03:22;;;;;;;3.50;3.20;;;;;;;;;;5152895;27;20482;-65
2022/09/30 01:05:51;;;;;;;3.63;3.33;;;;;;;;;;5161772;27;20201;-65
2022/09/30 01:08:20;;;;;;;3.20;2.90;;;;;;;;;;5161939;27;20329;-65
2022/09/30 01:10:48;;;;;;;3.40;3.20;;;;;;;;;;5161467;27;20205;-65
2022/09/30 01:13:19;;;;;;;3.40;3.10;;;;;;;;;;5149800;27;20206;-66
2022/09/30 01:15:56;;;;;;;3.20;3.00;;;;;;;;;;5140810;27;20565;-65
2022/09/30 01:18:29;;;;;;;3.10;2.88;;;;;;;;;;5140857;27;20213;-65
2022/09/30 01:21:20;;;;;;;3.58;3.28;;;;;;;;;;5140821;27;20300;-65
2022/09/30 01:24:12;;;;;;;3.10;2.90;;;;;;;;;;5081853;28;20282;-65
2022/09/30 01:26:57;;;;;;;3.35;3.15;;;;;;;;;;5143477;27;20212;-65
2022/09/30 01:29:43;;;;;;;3.03;2.75;;;;;;;;;;5161174;27;20570;-65
2022/09/30 01:32:18;;;;;;;3.10;2.90;;;;;;;;;;5159503;27;20229;-65
2022/09/30 01:34:53;;;;;;;3.15;2.85;;;;;;;;;;5140658;27;20583;-65
2022/09/30 01:37:26;;;;;;;3.20;2.90;;;;;;;;;;5140454;27;20263;-65
2022/09/30 01:40:01;;;;;;;3.20;3.00;;;;;;;;;;5140304;27;20272;-65
2022/09/30 01:42:31;;;;;;;3.00;2.80;;;;;;;;;;5139746;27;20276;-67
2022/09/30 01:45:02;;;;;;;3.05;2.85;;;;;;;;;;5139806;27;20650;-67
2022/09/30 01:47:33;;;;;;;3.58;2.90;;;;;;;;;;5140431;27;20210;-65
2022/09/30 01:50:03;;;;;;;3.10;2.90;;;;;;;;;;5161073;27;20570;-67
2022/09/30 01:52:34;;;;;;;2.95;2.75;;;;;;;;;;5160265;27;20218;-67
2022/09/30 01:55:05;;;;;;;3.03;2.83;;;;;;;;;;5160889;27;20491;-66
2022/09/30 01:57:36;;;;;;;2.97;2.78;;;;;;;;;;5160857;27;20201;-65
2022/09/30 02:00:06;;;;;;;2.75;2.55;;;;;;;;;;5160793;27;20386;-65
2022/09/30 02:02:37;;;;;;;2.80;2.60;;;;;;;;;;5160795;27;20186;-65
2022/09/30 02:05:08;;;;;;;2.83;2.63;;;;;;;;;;5160581;27;20201;-65
2022/09/30 02:07:39;;;;;;;2.60;2.40;;;;;;;;;;5160826;27;20208;-65
2022/09/30 02:10:08;;;;;;;2.75;2.55;;;;;;;;;;5160989;27;20309;-65
2022/09/30 02:12:39;;;;;;;2.70;2.50;;;;;;;;;;5163623;27;20307;-65
2022/09/30 02:15:09;;;;;;;2.85;2.65;;;;;;;;;;5181682;27;20240;-65
2022/09/30 02:17:42;;;;;;;2.50;2.30;;;;;;;;;;5181517;27;20200;-65
2022/09/30 02:20:11;;;;;;;2.72;2.53;;;;;;;;;;5181417;27;20253;-65
2022/09/30 02:22:43;;;;;;;2.90;2.70;;;;;;;;;;5176334;27;20544;-65
2022/09/30 02:25:12;;;;;;;2.67;2.47;;;;;;;;;;5160592;27;20201;-65
2022/09/30 02:27:42;;;;;;;2.80;2.60;;;;;;;;;;5160066;27;20202;-66
2022/09/30 02:30:11;;;;;;;2.50;2.30;;;;;;;;;;5160189;27;20201;-67
2022/09/30 02:32:43;;;;;;;2.35;2.15;;;;;;;;;;5163684;27;20472;-65
2022/09/30 02:35:12;;;;;;;2.50;2.30;;;;;;;;;;5180394;27;20201;-65
2022/09/30 02:37:42;;;;;;;2.42;2.25;;;;;;;;;;5180520;27;20226;-65
2022/09/30 02:40:11;;;;;;;3.40;2.40;;;;;;;;;;5180271;27;20244;-65
2022/09/30 02:42:40;;;;;;;3.97;2.60;;;;;;;;;;5176599;27;20208;-67
2022/09/30 02:45:10;;;;;;;2.65;2.45;;;;;;;;;;5159886;27;20201;-65
2022/09/30 02:47:47;;;;;;;2.30;2.10;;;;;;;;;;5159787;27;20209;-65
2022/09/30 02:50:17;;;;;;;2.40;2.20;;;;;;;;;;5159342;27;20215;-66
2022/09/30 02:52:52;;;;;;;2.20;2.00;;;;;;;;;;5163991;27;20216;-67
2022/09/30 02:55:20;;;;;;;2.20;2.10;;;;;;;;;;5180587;27;20304;-66
2022/09/30 02:57:54;;;;;;;2.70;2.50;;;;;;;;;;5180172;27;20205;-65
2022/09/30 03:00:23;;;;;;;2.35;2.25;;;;;;;;;;5180558;27;20229;-65
2022/09/30 03:02:55;;;;;;;2.50;2.30;;;;;;;;;;5173687;27;20883;-65
2022/09/30 03:05:23;;;;;;;2.78;2.40;;;;;;;;;;5159355;27;20202;-65
2022/09/30 03:07:51;;;;;;;2.33;2.22;;;;;;;;;;5159420;27;20210;-65
2022/09/30 03:10:19;;;;;;;2.20;2.10;;;;;;;;;;5159789;27;20202;-67
2022/09/30 03:12:54;;;;;;;2.00;1.90;;;;;;;;;;5158743;27;20308;-65
2022/09/30 03:15:38;;;;;;;2.33;2.13;;;;;;;;;;5159362;27;20201;-65
2022/09/30 03:18:24;;;;;;;2.67;2.47;;;;;;;;;;5159288;27;20208;-65
2022/09/30 03:21:02;;;;;;;2.30;2.10;;;;;;;;;;5159341;27;20201;-65
2022/09/30 03:23:57;;;;;;;1.80;1.70;;;;;;;;;;5158986;27;20253;-65
2022/09/30 03:26:32;;;;;;;2.13;2.03;;;;;;;;;;5111090;27;20503;-64
2022/09/30 03:29:06;;;;;;;2.40;2.20;;;;;;;;;;5159342;27;20300;-67
2022/09/30 03:31:38;;;;;;;2.30;2.00;;;;;;;;;;5158901;27;20209;-67
2022/09/30 03:34:12;;;;;;;2.10;1.95;;;;;;;;;;5157415;27;20201;-66
2022/09/30 03:36:43;;;;;;;2.22;2.13;;;;;;;;;;5159390;27;20224;-65
2022/09/30 03:39:14;;;;;;;2.08;1.98;;;;;;;;;;5158997;27;20229;-67
2022/09/30 03:41:45;;;;;;;2.15;2.00;;;;;;;;;;5159264;27;20202;-65
2022/09/30 03:44:15;;;;;;;2.10;2.00;;;;;;;;;;5142684;27;20194;-65
2022/09/30 03:46:45;;;;;;;2.05;1.95;;;;;;;;;;5138017;28;20301;-67
2022/09/30 03:49:16;;;;;;;1.95;1.85;;;;;;;;;;5138156;28;20202;-65
2022/09/30 03:51:45;;;;;;;1.65;1.55;;;;;;;;;;5137837;28;20245;-66
2022/09/30 03:54:14;;;;;;;2.13;2.00;;;;;;;;;;5154262;27;20198;-65
2022/09/30 03:56:42;;;;;;;2.00;1.90;;;;;;;;;;5159046;27;20304;-67
2022/09/30 03:59:12;;;;;;;2.20;2.10;;;;;;;;;;5158649;27;20279;-67
2022/09/30 04:01:40;;;;;;;2.20;2.10;;;;;;;;;;5157669;27;20258;-67
2022/09/30 04:04:07;;;;;;;1.95;1.85;;;;;;;;;;5158292;27;20252;-65
2022/09/30 04:06:35;;;;;;;2.10;2.00;;;;;;;;;;5158438;27;20213;-67
2022/09/30 04:09:04;;;;;;;2.13;1.90;;;;;;;;;;5157964;27;20212;-67
2022/09/30 04:11:31;;;;;;;1.90;1.80;;;;;;;;;;5154997;27;20226;-67
2022/09/30 04:14:00;;;;;;;2.00;1.90;;;;;;;;;;5137378;28;20230;-67
2022/09/30 04:16:29;;;;;;;1.85;1.65;;;;;;;;;;5137737;28;20202;-67
2022/09/30 04:18:56;;;;;;;2.00;1.90;;;;;;;;;;5137781;28;20297;-65
2022/09/30 04:21:24;;;;;;;1.80;1.70;;;;;;;;;;5139694;27;20225;-65
2022/09/30 04:23:52;;;;;;;2.15;2.05;;;;;;;;;;5157519;27;20250;-67
2022/09/30 04:26:21;;;;;;;2.00;1.90;;;;;;;;;;5158068;27;20302;-65
2022/09/30 04:28:49;;;;;;;1.85;1.75;;;;;;;;;;5157469;27;20202;-65
2022/09/30 04:31:19;;;;;;;1.90;1.80;;;;;;;;;;5156291;27;20233;-65
2022/09/30 04:33:48;;;;;;;2.00;1.90;;;;;;;;;;5156774;27;20233;-66
2022/09/30 04:36:15;;;;;;;1.90;1.80;;;;;;;;;;5157990;27;20206;-65
2022/09/30 04:38:43;;;;;;;1.90;1.80;;;;;;;;;;5161330;27;20885;-66
2022/09/30 04:41:15;;;;;;;1.90;1.80;;;;;;;;;;5155157;27;20289;-65
2022/09/30 04:43:45;;;;;;;1.73;1.63;;;;;;;;;;5138029;27;20305;-66
2022/09/30 04:46:13;;;;;;;2.05;1.95;;;;;;;;;;5140240;27;20217;-66
2022/09/30 04:48:44;;;;;;;1.70;1.60;;;;;;;;;;5140494;27;20543;-65
2022/09/30 04:51:12;;;;;;;2.10;2.00;;;;;;;;;;5139217;27;20202;-65
2022/09/30 04:53:39;;;;;;;1.85;1.75;;;;;;;;;;5139398;27;20284;-65
2022/09/30 04:56:07;;;;;;;2.15;2.05;;;;;;;;;;5138931;27;20217;-65
2022/09/30 04:58:36;;;;;;;1.75;1.65;;;;;;;;;;5138964;27;20204;-65
2022/09/30 05:01:05;;;;;;;2.10;1.90;;;;;;;;;;5139131;27;20266;-65
2022/09/30 05:03:33;;;;;;;2.00;1.90;;;;;;;;;;5157354;27;20200;-65
2022/09/30 05:06:01;;;;;;;1.90;1.80;;;;;;;;;;5159458;27;20244;-66
2022/09/30 05:08:28;;;;;;;2.03;1.90;;;;;;;;;;5159524;27;20237;-66
2022/09/30 05:10:56;;;;;;;1.88;1.77;;;;;;;;;;5158885;27;20194;-65
2022/09/30 05:13:25;;;;;;;2.33;2.13;;;;;;;;;;5140696;27;20626;-65
2022/09/30 05:15:52;;;;;;;1.80;1.70;;;;;;;;;;5137865;27;20210;-65
2022/09/30 05:18:21;;;;;;;1.90;1.52;;;;;;;;;;5137538;27;20208;-65
2022/09/30 05:20:52;;;;;;;1.77;1.67;;;;;;;;;;5138676;27;20206;-65
2022/09/30 05:23:20;;;;;;;2.10;2.00;;;;;;;;;;5140031;27;20197;-65
2022/09/30 05:25:48;;;;;;;2.05;1.90;;;;;;;;;;5159244;27;20197;-66
2022/09/30 05:28:15;;;;;;;1.80;1.70;;;;;;;;;;5159377;27;20245;-66
2022/09/30 05:30:44;;;;;;;1.70;1.60;;;;;;;;;;5158834;27;20229;-66
2022/09/30 05:33:12;;;;;;;1.60;1.50;;;;;;;;;;5158543;27;20217;-65
2022/09/30 05:35:41;;;;;;;1.90;1.80;;;;;;;;;;5158976;27;20583;-65
2022/09/30 05:38:09;;;;;;;1.83;1.73;;;;;;;;;;5158469;27;20213;-65
2022/09/30 05:40:38;;;;;;;1.70;1.60;;;;;;;;;;5158255;27;20260;-65
2022/09/30 05:43:06;;;;;;;1.80;1.70;;;;;;;;;;5143239;27;20193;-65
2022/09/30 05:45:34;;;;;;;1.95;1.85;;;;;;;;;;5136973;27;20594;-66
2022/09/30 05:48:02;;;;;;;2.03;1.90;;;;;;;;;;5137661;27;20194;-65
2022/09/30 05:50:29;;;;;;;1.90;1.80;;;;;;;;;;5136937;27;20299;-65
2022/09/30 05:52:58;;;;;;;1.90;1.80;;;;;;;;;;5149170;27;20246;-66
2022/09/30 05:55:26;;;;;;;1.55;1.45;;;;;;;;;;5157277;27;20285;-65
2022/09/30 05:57:53;;;;;;;1.70;1.60;;;;;;;;;;5157847;27;20287;-65
2022/09/30 06:00:21;;;;;;;1.70;1.60;;;;;;;;;;5158125;27;20214;-65
2022/09/30 06:02:51;;;;;;;1.73;1.63;;;;;;;;;;5146769;27;20299;-65
2022/09/30 06:05:20;;;;;;;1.90;1.80;;;;;;;;;;5137508;27;20293;-66
2022/09/30 06:07:49;;;;;;;1.77;1.60;;;;;;;;;;5137963;27;20206;-65
2022/09/30 06:10:18;;;;;;;1.70;1.60;;;;;;;;;;5137224;27;20270;-66
2022/09/30 06:12:45;;;;;;;2.10;2.00;;;;;;;;;;5137665;27;20210;-65
2022/09/30 06:15:13;;;;;;;2.00;1.80;;;;;;;;;;5137564;27;20262;-65
2022/09/30 06:17:41;;;;;;;2.15;1.98;;;;;;;;;;5137409;27;20202;-65
2022/09/30 06:20:09;;;;;;;2.65;2.08;;;;;;;;;;5137392;27;20217;-65
2022/09/30 06:22:37;;;;;;;2.78;2.17;;;;;;;;;;5146017;27;20221;-65
2022/09/30 06:25:05;;;;;;;2.25;2.03;;;;;;;;;;5157358;27;20202;-65
2022/09/30 06:27:37;;;;;;;3.38;2.40;;;;;;;;;;5157270;27;20227;-65
2022/09/30 06:30:04;;;;;;;4.25;2.08;;;;;;;;;;5156999;27;20202;-65
2022/09/30 06:32:33;;;;;;;3.53;2.72;;;;;;;;;;5155999;27;20277;-65
2022/09/30 06:35:02;;;;;;;4.05;2.40;;;;;;;;;;5158106;27;20570;-65
2022/09/30 06:37:29;;;;;;;3.53;2.42;;;;;;;;;;5158279;27;20221;-65
2022/09/30 06:39:57;;;;;;;2.80;2.53;;;;;;;;;;5157241;27;20241;-65
2022/09/30 06:42:24;;;;;;;4.35;2.47;;;;;;;;;;5149594;27;20194;-65
2022/09/30 06:44:54;;;;;;;4.03;2.53;;;;;;;;;;5137123;27;20202;-65
2022/09/30 06:47:22;;;;;;;4.88;2.45;;;;;;;;;;5136211;27;20251;-65
2022/09/30 06:49:52;;;;;;;3.33;2.63;;;;;;;;;;5136600;27;20804;-65
2022/09/30 06:52:19;;;;;;;5.10;2.80;;;;;;;;;;5140492;27;20202;-65
2022/09/30 06:54:48;;;;;;;4.13;2.70;;;;;;;;;;5156058;27;20242;-65
2022/09/30 06:57:21;;;;;;;5.47;2.88;;;;;;;;;;5156740;27;20201;-65
2022/09/30 06:59:49;;;;;;;5.65;2.95;;;;;;;;;;5155476;27;20215;-65
2022/09/30 07:02:18;;;;;;;4.07;2.83;;;;;;;;;;5150152;27;20191;-65
2022/09/30 07:04:46;;;;;;;4.47;3.10;;;;;;;;;;5136388;27;20282;-65
2022/09/30 07:07:14;;;;;;;4.63;3.13;;;;;;;;;;5135775;27;20512;-65
2022/09/30 07:09:42;;;;;;;4.75;3.10;;;;;;;;;;5136170;27;20225;-65
2022/09/30 07:12:09;;;;;;;4.65;2.92;;;;;;;;;;5140269;27;20204;-65
2022/09/30 07:14:37;;;;;;;3.88;2.65;;;;;;;;;;5155864;27;20308;-65
2022/09/30 07:17:04;;;;;;;4.28;2.88;;;;;;;;;;5155374;27;20237;-67
2022/09/30 07:19:34;;;;;;;4.18;3.10;;;;;;;;;;5156331;27;20240;-65
2022/09/30 07:24:43;;;;;;;4.28;2.90;;;;;;;;;;5134336;27;20200;-67
2022/09/30 07:27:12;;;;;;;4.07;2.92;;;;;;;;;;5136021;27;20294;-67
2022/09/30 07:29:40;;;;;;;4.47;3.50;;;;;;;;;;5136428;27;20198;-65
2022/09/30 07:32:07;;;;;;;4.68;3.28;;;;;;;;;;5139272;27;20539;-65
2022/09/30 07:34:36;;;;;;;3.92;2.90;;;;;;;;;;5155974;27;20224;-66
2022/09/30 07:37:05;;;;;;;4.50;3.00;;;;;;;;;;5156750;27;20236;-66
2022/09/30 07:39:33;;;;;;;3.13;2.83;;;;;;;;;;5156766;27;20277;-67
2022/09/30 07:42:01;;;;;;;4.18;3.17;;;;;;;;;;5154311;27;20207;-66
2022/09/30 07:44:28;;;;;;;3.55;2.92;;;;;;;;;;5136216;27;20637;-67
2022/09/30 07:46:57;;;;;;;3.72;2.97;;;;;;;;;;5135787;28;20591;-67
2022/09/30 07:49:25;;;;;;;4.15;3.30;;;;;;;;;;5135613;28;20202;-65
2022/09/30 07:51:55;;;;;;;4.05;3.10;;;;;;;;;;5149849;27;20514;-67
2022/09/30 07:54:23;;;;;;;5.57;3.35;;;;;;;;;;5135358;28;20651;-67
2022/09/30 07:56:51;;;;;;;5.40;3.22;;;;;;;;;;5135152;28;20228;-67
2022/09/30 07:59:19;;;;;;;3.85;3.25;;;;;;;;;;5135689;28;20210;-67
2022/09/30 08:01:47;;;;;;;4.55;3.45;;;;;;;;;;5135483;27;20591;-67
2022/09/30 08:04:16;;;;;;;3.47;2.92;;;;;;;;;;5135838;28;20202;-65
2022/09/30 08:06:45;;;;;;;4.13;3.05;;;;;;;;;;5135620;28;20238;-67
2022/09/30 08:23:11;;;;;;;4.75;3.35;;;;;;;;;;5112601;27;20588;-66
2022/09/30 08:25:38;;;;;;;6.07;3.10;;;;;;;;;;5111884;28;20199;-65
2022/09/30 08:28:05;;;;;;;4.25;2.92;;;;;;;;;;5112551;28;20206;-65
2022/09/30 08:30:35;;;;;;;3.33;2.92;;;;;;;;;;5111969;28;20199;-65
2022/09/30 08:33:02;;;;;;;5.53;3.15;;;;;;;;;;5112544;28;20512;-66
2022/09/30 08:35:29;;;;;;;4.50;2.90;;;;;;;;;;5109971;28;20210;-66
2022/09/30 08:37:57;;;;;;;3.78;3.00;;;;;;;;;;5120702;28;20210;-66
2022/09/30 08:40:28;;;;;;;4.70;3.40;;;;;;;;;;5111179;28;20203;-66
2022/09/30 08:43:01;;;;;;;4.50;3.38;;;;;;;;;;5111877;28;20206;-66
2022/09/30 08:45:36;;;;;;;3.72;3.00;;;;;;;;;;5122617;28;20191;-66
2022/09/30 08:48:09;;;;;;;4.68;3.15;;;;;;;;;;5109977;28;20195;-66
2022/09/30 08:50:47;;;;;;;4.22;2.95;;;;;;;;;;5091696;28;20246;-66
2022/09/30 08:53:17;;;;;;;4.80;3.05;;;;;;;;;;5091224;28;20203;-66
2022/09/30 08:55:47;;;;;;;4.82;2.95;;;;;;;;;;5099747;28;20196;-66
2022/09/30 08:58:22;;;;;;;5.15;3.28;;;;;;;;;;5112579;28;20210;-66
2022/09/30 09:40:42;;;;;;;4.80;3.13;;;;;;;;;;5151715;27;20200;-67
2022/09/30 09:43:17;;;;;;;5.22;2.88;;;;;;;;;;5152222;27;20571;-66
2022/09/30 09:45:49;;;;;;;4.47;2.70;;;;;;;;;;5152552;27;20629;-67
2022/09/30 09:48:17;;;;;;;6.47;2.92;;;;;;;;;;5153089;27;20200;-68
2022/09/30 09:50:50;;;;;;;5.13;2.80;;;;;;;;;;5153456;27;20669;-68
2022/09/30 09:53:32;;;;;;;2.65;2.35;;;;;;;;;;5153122;27;20241;-67
2022/09/30 09:56:02;;;;;;;4.13;2.72;;;;;;;;;;5148995;27;20194;-67
2022/09/30 09:58:33;;;;;;;3.78;3.00;;;;;;;;;;5152771;27;20200;-67
2022/09/30 10:01:31;;;;;;;4.75;2.83;;;;;;;;;;5152397;27;20229;-67
2022/09/30 10:04:08;;;;;;;3.75;2.78;;;;;;;;;;5152760;27;20270;-65
2022/09/30 10:06:43;;;;;;;3.75;2.63;;;;;;;;;;5152289;27;20228;-65
2022/09/30 10:09:22;;;;;;;2.95;2.40;;;;;;;;;;5152741;27;20241;-68
2022/09/30 10:11:51;;;;;;;4.07;2.90;;;;;;;;;;5152146;27;20598;-66
2022/09/30 10:14:19;;;;;;;4.15;2.55;;;;;;;;;;5152061;27;20198;-66
2022/09/30 10:16:47;;;;;;;5.07;2.80;;;;;;;;;;5152262;27;20598;-65
2022/09/30 10:19:20;;;;;;;3.45;2.63;;;;;;;;;;5152116;27;20590;-65
2022/09/30 10:21:48;;;;;;;3.13;2.80;;;;;;;;;;5152567;27;20210;-65
2022/09/30 10:24:27;;;;;;;3.47;2.75;;;;;;;;;;5151430;27;20776;-67
2022/09/30 10:26:55;;;;;;;4.15;2.65;;;;;;;;;;5150960;27;20774;-66
2022/09/30 10:29:27;;;;;;;3.47;2.70;;;;;;;;;;5151004;27;20206;-67
2022/09/30 10:31:54;;;;;;;3.47;2.45;;;;;;;;;;5151273;27;20198;-67
2022/09/30 10:34:24;;;;;;;2.90;2.60;;;;;;;;;;5150877;27;20198;-65
2022/09/30 10:36:52;;;;;;;3.08;2.78;;;;;;;;;;5147567;27;20242;-65
2022/09/30 10:39:23;;;;;;;4.40;2.60;;;;;;;;;;5136602;27;20211;-66
2022/09/30 10:41:51;;;;;;;2.78;2.58;;;;;;;;;;5137814;27;20203;-65
2022/09/30 10:44:21;;;;;;;3.70;3.03;;;;;;;;;;5137381;27;20514;-66
2022/09/30 10:46:50;;;;;;;4.75;2.50;;;;;;;;;;5136578;27;20230;-66
2022/09/30 10:49:26;;;;;;;3.05;2.53;;;;;;;;;;5137636;27;20211;-66
2022/09/30 10:51:54;;;;;;;2.72;2.20;;;;;;;;;;5136353;27;20246;-65
2022/09/30 10:54:36;;;;;;;3.70;2.17;;;;;;;;;;5137445;27;20217;-65
2022/09/30 10:57:04;;;;;;;3.10;2.65;;;;;;;;;;5136843;27;20198;-66
2022/09/30 10:59:37;;;;;;;2.72;2.22;;;;;;;;;;5137454;27;20213;-67
2022/09/30 11:02:16;;;;;;;2.60;2.30;;;;;;;;;;5136636;27;20209;-66
2022/09/30 11:04:47;;;;;;;3.08;2.25;;;;;;;;;;5136793;27;20567;-66
2022/09/30 11:23:20;;;;;;;4.60;2.30;;;;;;;;;;5087553;28;20283;-66
2022/09/30 11:25:50;;;;;;;2.67;2.30;;;;;;;;;;5067816;28;20207;-65
2022/09/30 11:28:30;;;;;;;2.80;2.13;;;;;;;;;;5068646;28;20215;-66
2022/09/30 11:31:02;;;;;;;4.53;2.25;;;;;;;;;;5067655;28;20322;-65
2022/09/30 11:33:35;;;;;;;2.75;2.22;;;;;;;;;;5067106;28;20216;-64
2022/09/30 11:36:05;;;;;;;3.80;2.40;;;;;;;;;;5048732;28;20197;-64
2022/09/30 11:38:47;;;;;;;4.47;2.20;;;;;;;;;;5049415;28;20197;-64
2022/09/30 11:41:20;;;;;;;3.80;2.08;;;;;;;;;;5038904;28;20471;-64
2022/09/30 11:43:52;;;;;;;3.53;2.47;;;;;;;;;;5050837;28;20223;-64
2022/09/30 11:46:29;;;;;;;2.60;2.15;;;;;;;;;;5070469;28;20204;-64
2022/09/30 11:49:24;;;;;;;5.20;2.47;;;;;;;;;;5070686;28;20626;-65
2022/09/30 11:51:56;;;;;;;2.55;2.30;;;;;;;;;;5068930;28;20224;-65
2022/09/30 11:54:32;;;;;;;3.47;2.25;;;;;;;;;;5064376;28;20193;-64
2022/09/30 11:57:03;;;;;;;3.05;2.08;;;;;;;;;;5049988;28;20204;-64
2022/09/30 11:59:34;;;;;;;2.30;2.10;;;;;;;;;;5050571;28;20205;-64
2022/09/30 12:02:03;;;;;;;2.45;2.10;;;;;;;;;;5050067;28;20641;-64
2022/09/30 12:04:32;;;;;;;2.35;2.13;;;;;;;;;;5061732;28;20197;-64
2022/09/30 12:07:00;;;;;;;2.45;2.05;;;;;;;;;;5069627;28;20205;-64
2022/09/30 12:09:29;;;;;;;2.45;2.17;;;;;;;;;;5069230;28;20211;-65
2022/09/30 12:12:00;;;;;;;3.35;1.98;;;;;;;;;;5068707;28;20645;-64
2022/09/30 12:14:34;;;;;;;2.13;1.80;;;;;;;;;;5056460;28;20734;-64
2022/09/30 12:17:03;;;;;;;2.25;2.00;;;;;;;;;;5048705;28;20690;-64
2022/09/30 12:19:34;;;;;;;4.68;1.98;;;;;;;;;;5049997;28;20254;-64
2022/09/30 12:22:05;;;;;;;2.35;2.10;;;;;;;;;;5058943;28;20243;-64
2022/09/30 12:24:36;;;;;;;4.00;1.98;;;;;;;;;;5067289;28;20508;-64
2022/09/30 12:27:04;;;;;;;2.75;2.00;;;;;;;;;;5077132;28;20567;-64
2022/09/30 12:32:35;;;;;;;2.03;1.80;;;;;;;;;;5076271;28;20313;-64
2022/09/30 12:35:07;;;;;;;3.45;2.13;;;;;;;;;;5070998;28;20192;-64
2022/09/30 12:37:40;;;;;;;1.90;1.73;;;;;;;;;;5076001;28;20272;-64
2022/09/30 12:40:15;;;;;;;2.00;1.75;;;;;;;;;;5076703;28;20211;-64
2022/09/30 12:42:53;;;;;;;2.80;1.83;;;;;;;;;;5075938;28;20202;-64
2022/09/30 12:45:42;;;;;;;2.28;1.83;;;;;;;;;;5066445;28;20496;-64
2022/09/30 12:48:12;;;;;;;2.60;1.88;;;;;;;;;;5076072;28;20215;-65
2022/09/30 12:50:42;;;;;;;2.28;2.08;;;;;;;;;;5075847;28;20568;-65
2022/09/30 12:53:12;;;;;;;1.90;1.70;;;;;;;;;;5063362;28;20224;-65
2022/09/30 12:55:41;;;;;;;1.90;1.80;;;;;;;;;;5055778;28;20216;-64
2022/09/30 12:58:18;;;;;;;2.03;1.83;;;;;;;;;;5056804;28;20213;-64
2022/09/30 13:00:59;;;;;;;1.75;1.65;;;;;;;;;;5057031;28;20258;-64
2022/09/30 13:03:27;;;;;;;2.40;2.20;;;;;;;;;;5058658;28;20208;-65
2022/09/30 13:05:56;;;;;;;1.90;1.75;;;;;;;;;;5075966;28;20223;-64
2022/09/30 13:08:38;;;;;;;1.92;1.77;;;;;;;;;;5076591;28;20204;-64
2022/09/30 13:11:06;;;;;;;2.17;1.98;;;;;;;;;;5073480;28;20234;-64
2022/09/30 13:13:35;;;;;;;1.75;1.63;;;;;;;;;;5072157;28;20581;-65
2022/09/30 13:16:05;;;;;;;1.90;1.80;;;;;;;;;;5055820;28;20204;-65
2022/09/30 13:18:51;;;;;;;1.92;1.70;;;;;;;;;;5056312;28;20298;-64
2022/09/30 13:21:20;;;;;;;2.30;1.90;;;;;;;;;;5072383;28;20574;-64
2022/09/30 13:23:48;;;;;;;2.15;1.83;;;;;;;;;;5075243;28;20200;-64
2022/09/30 13:26:35;;;;;;;2.00;1.80;;;;;;;;;;5075089;28;20211;-66
2022/09/30 13:29:21;;;;;;;1.70;1.60;;;;;;;;;;5075116;28;20795;-64
2022/09/30 13:32:12;;;;;;;1.90;1.80;;;;;;;;;;5075062;28;20232;-64
2022/09/30 13:34:55;;;;;;;1.77;1.67;;;;;;;;;;5048164;28;20313;-64
2022/09/30 13:37:33;;;;;;;2.03;1.80;;;;;;;;;;5054344;28;20207;-64
2022/09/30 13:40:01;;;;;;;1.90;1.80;;;;;;;;;;5055446;28;20211;-64
2022/09/30 13:42:30;;;;;;;2.10;1.80;;;;;;;;;;5055936;28;20493;-64
2022/09/30 13:45:00;;;;;;;2.15;1.85;;;;;;;;;;5068908;28;20208;-64
2022/09/30 13:47:30;;;;;;;1.75;1.52;;;;;;;;;;5075615;28;20604;-64
2022/09/30 13:50:01;;;;;;;1.88;1.60;;;;;;;;;;5074905;28;20204;-64
2022/09/30 13:52:29;;;;;;;1.80;1.70;;;;;;;;;;5074280;28;20227;-64
2022/09/30 13:54:58;;;;;;;1.70;1.60;;;;;;;;;;5062390;28;20197;-64
2022/09/30 13:57:29;;;;;;;1.75;1.65;;;;;;;;;;5055547;28;20219;-64
2022/09/30 14:00:03;;;;;;;2.10;1.70;;;;;;;;;;5054015;28;20232;-64
2022/09/30 14:02:56;;;;;;;1.85;1.73;;;;;;;;;;5054112;28;20652;-65
2022/09/30 14:05:39;;;;;;;1.75;1.65;;;;;;;;;;5070371;28;20207;-64
2022/09/30 14:08:20;;;;;;;1.55;1.45;;;;;;;;;;5074922;28;20733;-65
2022/09/30 14:10:57;;;;;;;2.25;1.60;;;;;;;;;;5075063;28;20204;-64
2022/09/30 14:13:32;;;;;;;1.80;1.70;;;;;;;;;;5074487;28;20682;-64
2022/09/30 14:16:14;;;;;;;1.88;1.73;;;;;;;;;;5053538;28;20315;-65
2022/09/30 14:18:48;;;;;;;1.60;1.50;;;;;;;;;;5053920;28;20204;-64
2022/09/30 14:21:23;;;;;;;1.50;1.40;;;;;;;;;;5054211;28;20236;-64
2022/09/30 14:23:59;;;;;;;1.60;1.50;;;;;;;;;;5054484;28;20200;-65
2022/09/30 14:26:37;;;;;;;1.50;1.40;;;;;;;;;;5053907;28;20262;-65
2022/09/30 14:29:07;;;;;;;1.77;1.67;;;;;;;;;;5055560;28;20225;-65
2022/09/30 14:31:34;;;;;;;1.75;1.50;;;;;;;;;;5054947;28;20205;-64
2022/09/30 14:34:02;;;;;;;1.98;1.80;;;;;;;;;;5055926;28;20243;-64
2022/09/30 14:36:29;;;;;;;1.50;1.40;;;;;;;;;;5055075;28;20212;-64
2022/09/30 14:39:01;;;;;;;1.50;1.40;;;;;;;;;;5055395;28;20205;-64
2022/09/30 14:41:30;;;;;;;1.40;1.30;;;;;;;;;;5054038;28;20220;-66
2022/09/30 14:44:01;;;;;;;1.45;1.35;;;;;;;;;;5057745;28;20485;-64
2022/09/30 14:46:31;;;;;;;1.63;1.52;;;;;;;;;;5073570;28;20195;-64
2022/09/30 14:49:03;;;;;;;1.55;1.45;;;;;;;;;;5073839;28;20588;-64
2022/09/30 14:51:35;;;;;;;1.52;1.42;;;;;;;;;;5074131;28;20212;-64
2022/09/30 14:54:05;;;;;;;1.65;1.55;;;;;;;;;;5073338;28;20196;-65
2022/09/30 14:56:33;;;;;;;1.50;1.38;;;;;;;;;;5074455;28;20262;-64
2022/09/30 14:59:01;;;;;;;1.70;1.40;;;;;;;;;;5074538;28;20689;-64
2022/09/30 15:01:30;;;;;;;1.60;1.50;;;;;;;;;;5074401;28;20196;-64
2022/09/30 15:03:59;;;;;;;1.40;1.30;;;;;;;;;;5069869;28;20212;-64
2022/09/30 15:06:28;;;;;;;1.52;1.42;;;;;;;;;;5054081;28;20246;-64
2022/09/30 15:09:01;;;;;;;2.75;1.73;;;;;;;;;;5054417;28;20201;-64
2022/09/30 15:11:30;;;;;;;1.60;1.50;;;;;;;;;;5054014;28;20209;-64
2022/09/30 15:14:00;;;;;;;1.50;1.40;;;;;;;;;;5056506;28;20216;-64
2022/09/30 15:16:28;;;;;;;1.50;1.40;;;;;;;;;;5074168;28;20643;-64
2022/09/30 15:18:57;;;;;;;2.13;1.45;;;;;;;;;;5074424;28;20601;-64
2022/09/30 15:21:26;;;;;;;1.65;1.50;;;;;;;;;;5074219;28;20641;-64
2022/09/30 15:23:54;;;;;;;1.40;1.30;;;;;;;;;;5071902;28;20200;-64
2022/09/30 15:26:23;;;;;;;1.60;1.50;;;;;;;;;;5060584;28;20192;-64
2022/09/30 15:28:51;;;;;;;1.67;1.58;;;;;;;;;;5073489;28;20208;-64
2022/09/30 15:31:21;;;;;;;1.70;1.60;;;;;;;;;;5074479;28;20226;-66
2022/09/30 15:33:48;;;;;;;1.40;1.30;;;;;;;;;;5073964;28;20223;-65
2022/09/30 15:36:17;;;;;;;1.60;1.50;;;;;;;;;;5073283;28;20271;-66
2022/09/30 15:38:48;;;;;;;1.73;1.63;;;;;;;;;;5073243;28;20485;-66
2022/09/30 15:41:15;;;;;;;1.60;1.50;;;;;;;;;;5074003;28;20204;-65
2022/09/30 15:43:43;;;;;;;1.83;1.52;;;;;;;;;;5072171;28;20215;-64
2022/09/30 15:46:24;;;;;;;1.70;1.60;;;;;;;;;;5069996;28;20477;-64
2022/09/30 15:48:52;;;;;;;1.65;1.55;;;;;;;;;;5053770;28;20286;-64
2022/09/30 15:51:24;;;;;;;1.70;1.60;;;;;;;;;;5053342;28;20570;-65
2022/09/30 15:53:52;;;;;;;1.70;1.60;;;;;;;;;;5053045;28;20475;-64
2022/09/30 15:56:24;;;;;;;1.98;1.60;;;;;;;;;;5057722;28;20193;-64
2022/09/30 15:58:56;;;;;;;1.65;1.55;;;;;;;;;;5075680;28;20204;-64
2022/09/30 16:01:25;;;;;;;1.67;1.58;;;;;;;;;;5077222;28;20575;-64
2022/09/30 16:03:54;;;;;;;1.50;1.40;;;;;;;;;;5077603;28;20196;-65
2022/09/30 16:06:26;;;;;;;1.67;1.58;;;;;;;;;;5072819;28;20201;-64
2022/09/30 16:09:00;;;;;;;1.70;1.60;;;;;;;;;;5078325;28;20572;-64
2022/09/30 16:11:28;;;;;;;1.55;1.45;;;;;;;;;;5077368;28;20460;-64
2022/09/30 16:13:56;;;;;;;1.50;1.40;;;;;;;;;;5071393;28;20217;-64
2022/09/30 16:16:26;;;;;;;1.83;1.40;;;;;;;;;;5057823;28;20680;-64
2022/09/30 16:18:54;;;;;;;1.50;1.40;;;;;;;;;;5056567;28;20630;-64
2022/09/30 16:21:29;;;;;;;1.83;1.60;;;;;;;;;;5056655;28;20520;-64